Time,TemperatureF,DewpointF,PressureIn,WindDirection,WindDirectionDegrees,WindSpeedMPH,WindSpeedGustMPH,Humidity,HourlyPrecipIn,Conditions,Clouds,dailyrainin,SoftwareType,DateUTC
2013-06-08 00:00:00,64.2,28.6,29.40,SE,141,3.0,3.0,26,0.00,,,0.00,Wunderground v.1.15,2013-06-08 06:00:00,
2013-06-08 00:10:00,64.3,28.7,29.40,SSW,198,1.0,6.0,26,0.00,,,0.00,Wunderground v.1.15,2013-06-08 06:10:00,
2013-06-08 00:15:00,64.2,28.6,29.40,NW,306,1.0,8.0,26,0.00,,,0.00,Wunderground v.1.15,2013-06-08 06:15:00,
2013-06-08 00:25:00,64.0,28.4,29.40,SSW,195,2.0,2.0,26,0.00,,,0.00,Wunderground v.1.15,2013-06-08 06:25:00,
2013-06-08 00:30:00,64.0,29.3,29.38,SSW,213,2.0,2.0,27,0.00,,,0.00,Wunderground v.1.15,2013-06-08 06:30:00,
2013-06-08 00:40:00,63.7,29.1,29.38,SSW,208,1.0,1.0,27,0.00,,,0.00,Wunderground v.1.15,2013-06-08 06:40:00,
2013-06-08 00:50:00,63.2,29.5,29.37,SSW,208,1.0,2.0,28,0.00,,,0.00,Wunderground v.1.15,2013-06-08 06:50:00,
2013-06-08 00:55:00,63.1,29.4,29.37,SW,220,1.0,2.0,28,0.00,,,0.00,Wunderground v.1.15,2013-06-08 06:55:00,
2013-06-08 01:00:00,63.1,29.4,29.36,SSE,168,1.0,5.0,28,0.00,,,0.00,Wunderground v.1.15,2013-06-08 07:00:00,
2013-06-08 01:10:00,63.2,29.5,29.36,SSW,205,1.0,1.0,28,0.00,,,0.00,Wunderground v.1.15,2013-06-08 07:10:00,
2013-06-08 01:15:00,63.1,29.4,29.35,WSW,240,0.0,1.0,28,0.00,,,0.00,Wunderground v.1.15,2013-06-08 07:15:00,
2013-06-08 01:25:00,62.1,28.6,29.35,WSW,243,0.0,0.0,28,0.00,,,0.00,Wunderground v.1.15,2013-06-08 07:25:00,
2013-06-08 01:30:00,61.8,29.2,29.35,South,174,0.0,0.0,29,0.00,,,0.00,Wunderground v.1.15,2013-06-08 07:30:00,
2013-06-08 01:40:00,62.1,29.4,29.35,SW,223,1.0,1.0,29,0.00,,,0.00,Wunderground v.1.15,2013-06-08 07:40:00,
2013-06-08 01:45:00,62.0,30.2,29.36,South,185,2.0,2.0,30,0.00,,,0.00,Wunderground v.1.15,2013-06-08 07:45:00,
2013-06-08 01:55:00,59.9,29.9,29.36,South,185,0.0,0.0,32,0.00,,,0.00,Wunderground v.1.15,2013-06-08 07:55:00,
2013-06-08 02:00:00,59.9,29.2,29.36,West,277,0.0,2.0,31,0.00,,,0.00,Wunderground v.1.15,2013-06-08 08:00:00,
2013-06-08 02:10:00,60.5,29.7,29.36,West,271,0.0,0.0,31,0.00,,,0.00,Wunderground v.1.15,2013-06-08 08:10:00,
2013-06-08 02:15:00,59.6,29.7,29.35,SW,223,0.0,0.0,32,0.00,,,0.00,Wunderground v.1.15,2013-06-08 08:15:00,
2013-06-08 02:25:00,59.9,28.4,29.35,SW,234,0.0,0.0,30,0.00,,,0.00,Wunderground v.1.15,2013-06-08 08:25:00,
2013-06-08 02:30:00,60.2,29.4,29.39,SW,234,0.0,0.0,31,0.00,,,0.00,Wunderground v.1.15,2013-06-08 08:30:00,
2013-06-08 02:40:00,59.8,29.9,29.39,SSW,195,0.0,1.0,32,0.00,,,0.00,Wunderground v.1.15,2013-06-08 08:40:00,
2013-06-08 02:45:00,60.2,29.4,29.38,WSW,239,0.0,1.0,31,0.00,,,0.00,Wunderground v.1.15,2013-06-08 08:45:00,
2013-06-08 02:55:00,60.2,30.2,29.38,SW,232,0.0,0.0,32,0.00,,,0.00,Wunderground v.1.15,2013-06-08 08:55:00,
2013-06-08 03:00:00,60.4,30.4,29.37,SSW,196,0.0,2.0,32,0.00,,,0.00,Wunderground v.1.15,2013-06-08 09:00:00,
2013-06-08 03:10:00,60.2,30.2,29.37,NW,322,1.0,1.0,32,0.00,,,0.00,Wunderground v.1.15,2013-06-08 09:10:00,
2013-06-08 03:15:00,60.4,30.4,29.38,NNE,31,1.0,1.0,32,0.00,,,0.00,Wunderground v.1.15,2013-06-08 09:15:00,
2013-06-08 03:25:00,58.9,30.6,29.38,West,277,1.0,5.0,34,0.00,,,0.00,Wunderground v.1.15,2013-06-08 09:25:00,
2013-06-08 03:30:00,60.1,30.9,29.36,South,186,2.0,2.0,33,0.00,,,0.00,Wunderground v.1.15,2013-06-08 09:30:00,
2013-06-08 03:40:00,60.5,30.5,29.36,South,186,2.0,3.0,32,0.00,,,0.00,Wunderground v.1.15,2013-06-08 09:40:00,
2013-06-08 03:45:00,60.7,30.6,29.33,South,182,3.0,3.0,32,0.00,,,0.00,Wunderground v.1.15,2013-06-08 09:45:00,
2013-06-08 03:55:00,60.7,30.6,29.33,South,188,2.0,3.0,32,0.00,,,0.00,Wunderground v.1.15,2013-06-08 09:55:00,
2013-06-08 04:00:00,60.5,30.5,29.33,SSE,168,1.0,1.0,32,0.00,,,0.00,Wunderground v.1.15,2013-06-08 10:00:00,
2013-06-08 04:10:00,60.7,29.9,29.33,South,189,2.0,2.0,31,0.00,,,0.00,Wunderground v.1.15,2013-06-08 10:10:00,
2013-06-08 04:20:00,61.0,30.1,29.32,SW,215,1.0,1.0,31,0.00,,,0.00,Wunderground v.1.15,2013-06-08 10:20:00,
2013-06-08 04:25:00,61.0,30.1,29.32,NE,37,1.0,1.0,31,0.00,,,0.00,Wunderground v.1.15,2013-06-08 10:25:00,
2013-06-08 04:30:00,60.5,30.5,29.30,SE,138,1.0,2.0,32,0.00,,,0.00,Wunderground v.1.15,2013-06-08 10:30:00,
2013-06-08 04:40:00,60.7,30.6,29.30,South,186,1.0,2.0,32,0.00,,,0.00,Wunderground v.1.15,2013-06-08 10:40:00,
2013-06-08 04:45:00,61.0,30.9,29.31,WSW,240,1.0,2.0,32,0.00,,,0.00,Wunderground v.1.15,2013-06-08 10:45:00,
2013-06-08 04:50:00,61.3,31.2,29.31,SSE,165,2.0,2.0,32,0.00,,,0.00,Wunderground v.1.15,2013-06-08 10:50:00,
2013-06-08 05:00:00,61.3,31.2,29.32,SW,227,2.0,2.0,32,0.00,,,0.00,Wunderground v.1.15,2013-06-08 11:00:00,
2013-06-08 05:10:00,61.5,32.1,29.32,SSE,167,3.0,3.0,33,0.00,,,0.00,Wunderground v.1.15,2013-06-08 11:10:00,
2013-06-08 05:15:00,61.5,32.1,29.30,SSW,199,4.0,4.0,33,0.00,,,0.00,Wunderground v.1.15,2013-06-08 11:15:00,
2013-06-08 05:25:00,61.5,32.8,29.30,SW,216,2.0,3.0,34,0.00,,,0.00,Wunderground v.1.15,2013-06-08 11:25:00,
2013-06-08 05:30:00,61.5,32.8,29.30,South,185,2.0,2.0,34,0.00,,,0.00,Wunderground v.1.15,2013-06-08 11:30:00,
2013-06-08 05:40:00,61.6,32.9,29.30,WNW,298,3.0,3.0,34,0.00,,,0.00,Wunderground v.1.15,2013-06-08 11:40:00,
2013-06-08 05:45:00,61.5,32.8,29.31,SSW,199,3.0,3.0,34,0.00,,,0.00,Wunderground v.1.15,2013-06-08 11:45:00,
2013-06-08 05:55:00,61.5,32.1,29.31,South,191,3.0,3.0,33,0.00,,,0.00,Wunderground v.1.15,2013-06-08 11:55:00,
2013-06-08 06:00:00,61.6,31.4,29.33,NNW,335,4.0,6.0,32,0.00,,,0.00,Wunderground v.1.15,2013-06-08 12:00:00,
2013-06-08 06:05:00,61.8,31.6,29.33,East,97,6.0,6.0,32,0.00,,,0.00,Wunderground v.1.15,2013-06-08 12:05:00,
2013-06-08 06:15:00,61.8,30.8,29.33,South,182,5.0,12.0,31,0.00,,,0.00,Wunderground v.1.15,2013-06-08 12:15:00,
2013-06-08 06:25:00,61.8,31.6,29.33,WSW,246,3.0,4.0,32,0.00,,,0.00,Wunderground v.1.15,2013-06-08 12:25:00,
2013-06-08 06:30:00,62.0,31.8,29.36,West,267,2.0,3.0,32,0.00,,,0.00,Wunderground v.1.15,2013-06-08 12:30:00,
2013-06-08 06:40:00,62.0,32.5,29.36,SSW,192,1.0,1.0,33,0.00,,,0.00,Wunderground v.1.15,2013-06-08 12:40:00,
2013-06-08 06:45:00,62.0,32.5,29.37,South,178,1.0,2.0,33,0.00,,,0.00,Wunderground v.1.15,2013-06-08 12:45:00,
2013-06-08 06:55:00,62.3,32.0,29.37,SW,229,2.0,2.0,32,0.00,,,0.00,Wunderground v.1.15,2013-06-08 12:55:00,
2013-06-08 07:00:00,62.4,32.1,29.37,WNW,291,2.0,2.0,32,0.00,,,0.00,Wunderground v.1.15,2013-06-08 13:00:00,
2013-06-08 07:05:00,62.4,32.1,29.37,WSW,250,1.0,2.0,32,0.00,,,0.00,Wunderground v.1.15,2013-06-08 13:05:00,
2013-06-08 07:10:00,62.6,32.3,29.37,WNW,287,2.0,2.0,32,0.00,,,0.00,Wunderground v.1.15,2013-06-08 13:10:00,
2013-06-08 07:15:00,62.6,32.3,29.36,NW,316,2.0,7.0,32,0.00,,,0.00,Wunderground v.1.15,2013-06-08 13:15:00,
2013-06-08 07:25:00,62.9,31.8,29.36,SW,236,4.0,4.0,31,0.00,,,0.00,Wunderground v.1.15,2013-06-08 13:25:00,
2013-06-08 07:30:00,63.1,32.7,29.40,South,191,2.0,2.0,32,0.00,,,0.00,Wunderground v.1.15,2013-06-08 13:30:00,
2013-06-08 07:40:00,63.2,33.6,29.40,West,274,1.0,1.0,33,0.00,,,0.00,Wunderground v.1.15,2013-06-08 13:40:00,
2013-06-08 07:45:00,63.2,33.6,29.41,SW,224,1.0,1.0,33,0.00,,,0.00,Wunderground v.1.15,2013-06-08 13:45:00,
2013-06-08 07:55:00,63.2,32.8,29.41,South,179,2.0,6.0,32,0.00,,,0.00,Wunderground v.1.15,2013-06-08 13:55:00,
2013-06-08 08:00:00,63.4,33.0,29.42,SSE,162,1.0,1.0,32,0.00,,,0.00,Wunderground v.1.15,2013-06-08 14:00:00,
2013-06-08 08:10:00,63.5,30.6,29.42,SW,215,2.0,2.0,29,0.00,,,0.00,Wunderground v.1.15,2013-06-08 14:10:00,
2013-06-08 08:20:00,63.5,32.3,29.43,NNW,339,5.0,5.0,31,0.00,,,0.00,Wunderground v.1.15,2013-06-08 14:20:00,
2013-06-08 08:25:00,63.5,31.5,29.43,South,171,5.0,5.0,30,0.00,,,0.00,Wunderground v.1.15,2013-06-08 14:25:00,
2013-06-08 08:30:00,63.5,32.3,29.48,WNW,296,5.0,5.0,31,0.00,,,0.00,Wunderground v.1.15,2013-06-08 14:30:00,
2013-06-08 08:40:00,63.7,31.7,29.48,North,357,4.0,4.0,30,0.00,,,0.00,Wunderground v.1.15,2013-06-08 14:40:00,
2013-06-08 08:45:00,63.9,31.8,29.49,NNW,343,3.0,4.0,30,0.00,,,0.00,Wunderground v.1.15,2013-06-08 14:45:00,
2013-06-08 08:55:00,64.0,32.7,29.49,SSE,165,3.0,3.0,31,0.00,,,0.00,Wunderground v.1.15,2013-06-08 14:55:00,
2013-06-08 09:00:00,64.2,30.4,29.48,NW,325,3.0,5.0,28,0.00,,,0.00,Wunderground v.1.15,2013-06-08 15:00:00,
2013-06-08 09:10:00,64.5,33.2,29.48,NW,315,4.0,7.0,31,0.00,,,0.00,Wunderground v.1.15,2013-06-08 15:10:00,
2013-06-08 09:15:00,64.8,31.8,29.46,NNE,20,4.0,7.0,29,0.00,,,0.00,Wunderground v.1.15,2013-06-08 15:15:00,
2013-06-08 09:20:00,65.0,31.1,29.46,NNW,340,4.0,10.0,28,0.00,,,0.00,Wunderground v.1.15,2013-06-08 15:20:00,
2013-06-08 09:25:00,65.2,32.1,29.46,North,3,4.0,10.0,29,0.00,,,0.00,Wunderground v.1.15,2013-06-08 15:25:00,
2013-06-08 09:30:00,65.6,31.6,29.41,WNW,292,3.0,10.0,28,0.00,,,0.00,Wunderground v.1.15,2013-06-08 15:30:00,
2013-06-08 09:40:00,66.3,31.3,29.41,SW,234,4.0,4.0,27,0.00,,,0.00,Wunderground v.1.15,2013-06-08 15:40:00,
2013-06-08 09:45:00,66.8,31.7,29.40,SW,216,3.0,4.0,27,0.00,,,0.00,Wunderground v.1.15,2013-06-08 15:45:00,
2013-06-08 09:55:00,67.6,30.5,29.40,WNW,288,2.0,6.0,25,0.00,,,0.00,Wunderground v.1.15,2013-06-08 15:55:00,
2013-06-08 10:00:00,67.6,27.4,29.40,NW,312,4.0,4.0,22,0.00,,,0.00,Wunderground v.1.15,2013-06-08 16:00:00,
2013-06-08 10:05:00,67.6,29.5,29.40,North,359,5.0,6.0,24,0.00,,,0.00,Wunderground v.1.15,2013-06-08 16:05:00,
2013-06-08 10:15:00,68.3,29.0,29.39,SSE,157,3.0,5.0,23,0.00,,,0.00,Wunderground v.1.15,2013-06-08 16:15:00,
2013-06-08 10:25:00,68.1,30.9,29.39,North,1,5.0,5.0,25,0.00,,,0.00,Wunderground v.1.15,2013-06-08 16:25:00,
2013-06-08 10:30:00,68.6,31.3,29.40,NNE,21,4.0,5.0,25,0.00,,,0.00,Wunderground v.1.15,2013-06-08 16:30:00,
2013-06-08 10:40:00,69.6,40.7,29.40,NNE,27,3.0,3.0,35,0.00,,,0.00,Wunderground v.1.15,2013-06-08 16:40:00,
2013-06-08 10:45:00,68.9,40.1,29.40,WSW,258,3.0,3.0,35,0.00,,,0.00,Wunderground v.1.15,2013-06-08 16:45:00,
2013-06-08 10:55:00,67.1,42.6,29.40,North,11,1.0,1.0,41,0.00,,,0.00,Wunderground v.1.15,2013-06-08 16:55:00,
2013-06-08 11:00:00,65.0,44.3,29.42,North,359,1.0,1.0,47,0.00,,,0.00,Wunderground v.1.15,2013-06-08 17:00:00,
2013-06-08 11:10:00,62.3,44.4,29.42,NE,35,1.0,2.0,52,0.00,,,0.00,Wunderground v.1.15,2013-06-08 17:10:00,
2013-06-08 11:15:00,61.5,45.7,29.46,North,0,1.0,8.0,56,0.00,,,0.00,Wunderground v.1.15,2013-06-08 17:15:00,
2013-06-08 11:25:00,59.9,45.1,29.46,NW,326,2.0,6.0,58,0.00,,,0.00,Wunderground v.1.15,2013-06-08 17:25:00,
2013-06-08 11:35:00,59.8,44.5,29.48,NW,313,1.0,1.0,57,0.00,,,0.00,Wunderground v.1.15,2013-06-08 17:35:00,
2013-06-08 11:40:00,60.7,45.8,29.48,ENE,59,1.0,1.0,58,0.00,,,0.00,Wunderground v.1.15,2013-06-08 17:40:00,
2013-06-08 11:45:00,61.6,43.8,29.48,North,0,1.0,2.0,52,0.00,,,0.00,Wunderground v.1.15,2013-06-08 17:45:00,
2013-06-08 11:55:00,61.6,43.8,29.48,WNW,295,1.0,1.0,52,0.00,,,0.00,Wunderground v.1.15,2013-06-08 17:55:00,
2013-06-08 12:00:00,60.4,44.2,29.48,SSW,208,0.0,0.0,55,0.00,,,0.00,Wunderground v.1.15,2013-06-08 18:00:00,
2013-06-08 12:10:00,62.0,44.7,29.48,SW,236,1.0,1.0,53,0.00,,,0.00,Wunderground v.1.15,2013-06-08 18:10:00,
2013-06-08 12:15:00,62.6,43.7,29.47,WSW,248,0.0,1.0,50,0.00,,,0.00,Wunderground v.1.15,2013-06-08 18:15:00,
2013-06-08 12:25:00,63.2,42.6,29.47,SSW,203,0.0,1.0,47,0.00,,,0.00,Wunderground v.1.15,2013-06-08 18:25:00,
2013-06-08 12:30:00,63.5,42.9,29.46,West,263,0.0,0.0,47,0.00,,,0.00,Wunderground v.1.15,2013-06-08 18:30:00,
2013-06-08 12:40:00,64.2,43.5,29.46,SSW,208,1.0,1.0,47,0.00,,,0.00,Wunderground v.1.15,2013-06-08 18:40:00,
2013-06-08 12:45:00,63.7,43.1,29.47,SSW,198,0.0,1.0,47,0.00,,,0.00,Wunderground v.1.15,2013-06-08 18:45:00,
2013-06-08 12:55:00,63.2,43.7,29.47,NW,318,0.0,5.0,49,0.00,,,0.00,Wunderground v.1.15,2013-06-08 18:55:00,
2013-06-08 13:00:00,62.3,43.9,29.46,West,271,1.0,1.0,51,0.00,,,0.00,Wunderground v.1.15,2013-06-08 19:00:00,
2013-06-08 13:10:00,62.1,44.3,29.46,North,10,0.0,0.0,52,0.00,,,0.00,Wunderground v.1.15,2013-06-08 19:10:00,
2013-06-08 13:15:00,62.1,43.7,29.49,SSW,213,0.0,0.0,51,0.00,,,0.00,Wunderground v.1.15,2013-06-08 19:15:00,
2013-06-08 13:20:00,62.6,44.2,29.49,WNW,291,0.0,0.0,51,0.00,,,0.00,Wunderground v.1.15,2013-06-08 19:20:00,
2013-06-08 13:25:00,63.2,44.2,29.49,North,356,1.0,1.0,50,0.00,,,0.00,Wunderground v.1.15,2013-06-08 19:25:00,
2013-06-08 13:35:00,63.1,43.6,29.51,North,353,1.0,6.0,49,0.00,,,0.00,Wunderground v.1.15,2013-06-08 19:35:00,
2013-06-08 13:40:00,63.2,42.6,29.51,WNW,289,1.0,1.0,47,0.00,,,0.00,Wunderground v.1.15,2013-06-08 19:40:00,
2013-06-08 13:45:00,63.4,42.8,29.50,NNE,17,0.0,1.0,47,0.00,,,0.00,Wunderground v.1.15,2013-06-08 19:45:00,
2013-06-08 13:55:00,66.0,43.5,29.50,North,7,1.0,1.0,44,0.00,,,0.00,Wunderground v.1.15,2013-06-08 19:55:00,
2013-06-08 14:00:00,66.6,42.8,29.48,NNW,339,1.0,1.0,42,0.00,,,0.00,Wunderground v.1.15,2013-06-08 20:00:00,
2013-06-08 14:10:00,66.1,41.1,29.48,North,10,1.0,1.0,40,0.00,,,0.00,Wunderground v.1.15,2013-06-08 20:10:00,
2013-06-08 14:15:00,66.0,42.2,29.47,NNE,13,0.0,1.0,42,0.00,,,0.00,Wunderground v.1.15,2013-06-08 20:15:00,
2013-06-08 14:25:00,65.6,42.5,29.47,WNW,289,1.0,2.0,43,0.00,,,0.00,Wunderground v.1.15,2013-06-08 20:25:00,
2013-06-08 14:30:00,64.2,43.5,29.50,North,1,2.0,2.0,47,0.00,,,0.00,Wunderground v.1.15,2013-06-08 20:30:00,
2013-06-08 14:35:00,64.7,43.4,29.50,NNE,28,3.0,3.0,46,0.00,,,0.00,Wunderground v.1.15,2013-06-08 20:35:00,
2013-06-08 14:40:00,65.3,42.2,29.50,West,281,3.0,3.0,43,0.00,,,0.00,Wunderground v.1.15,2013-06-08 20:40:00,
2013-06-08 14:45:00,65.2,42.7,29.50,NW,309,3.0,3.0,44,0.00,,,0.00,Wunderground v.1.15,2013-06-08 20:45:00,
2013-06-08 14:55:00,63.9,41.5,29.50,SSW,210,1.0,1.0,44,0.00,,,0.00,Wunderground v.1.15,2013-06-08 20:55:00,
2013-06-08 15:00:00,63.7,41.4,29.51,West,270,1.0,2.0,44,0.00,,,0.00,Wunderground v.1.15,2013-06-08 21:00:00,
2013-06-08 15:10:00,65.8,40.8,29.51,North,8,1.0,1.0,40,0.00,,,0.00,Wunderground v.1.15,2013-06-08 21:10:00,
2013-06-08 15:15:00,66.8,44.2,29.49,SE,140,2.0,2.0,44,0.00,,,0.00,Wunderground v.1.15,2013-06-08 21:15:00,
2013-06-08 15:25:00,66.0,40.3,29.49,NNW,328,2.0,5.0,39,0.00,,,0.00,Wunderground v.1.15,2013-06-08 21:25:00,
2013-06-08 15:30:00,66.1,39.7,29.49,NNW,328,1.0,1.0,38,0.00,,,0.00,Wunderground v.1.15,2013-06-08 21:30:00,
2013-06-08 15:40:00,65.0,40.7,29.49,SSW,210,2.0,2.0,41,0.00,,,0.00,Wunderground v.1.15,2013-06-08 21:40:00,
2013-06-08 15:45:00,65.2,40.9,29.49,West,272,1.0,2.0,41,0.00,,,0.00,Wunderground v.1.15,2013-06-08 21:45:00,
2013-06-08 15:55:00,67.6,28.5,29.49,NW,306,2.0,3.0,23,0.00,,,0.00,Wunderground v.1.15,2013-06-08 21:55:00,
2013-06-08 16:00:00,69.4,35.7,29.49,ENE,69,4.0,4.0,29,0.00,,,0.00,Wunderground v.1.15,2013-06-08 22:00:00,
2013-06-08 16:10:00,71.1,29.2,29.49,North,350,3.0,6.0,21,0.00,,,0.00,Wunderground v.1.15,2013-06-08 22:10:00,
2013-06-08 16:15:00,70.1,25.9,29.48,WSW,247,4.0,6.0,19,0.00,,,0.00,Wunderground v.1.15,2013-06-08 22:15:00,
2013-06-08 16:20:00,69.3,27.7,29.48,West,278,3.0,3.0,21,0.00,,,0.00,Wunderground v.1.15,2013-06-08 22:20:00,
2013-06-08 16:25:00,69.4,25.3,29.48,NW,315,3.0,3.0,19,0.00,,,0.00,Wunderground v.1.15,2013-06-08 22:25:00,
2013-06-08 16:30:00,70.4,26.1,29.48,NNE,16,2.0,8.0,19,0.00,,,0.00,Wunderground v.1.15,2013-06-08 22:30:00,
2013-06-08 16:40:00,70.3,26.1,29.48,NNW,337,4.0,5.0,19,0.00,,,0.00,Wunderground v.1.15,2013-06-08 22:40:00,
2013-06-08 16:45:00,69.9,27.0,29.49,West,270,4.0,5.0,20,0.00,,,0.00,Wunderground v.1.15,2013-06-08 22:45:00,
2013-06-08 16:55:00,69.6,26.7,29.49,North,357,3.0,4.0,20,0.00,,,0.00,Wunderground v.1.15,2013-06-08 22:55:00,
2013-06-08 17:00:00,70.4,27.4,29.49,WNW,291,2.0,2.0,20,0.00,,,0.00,Wunderground v.1.15,2013-06-08 23:00:00,
2013-06-08 17:10:00,69.9,25.7,29.49,NNW,339,2.0,2.0,19,0.00,,,0.00,Wunderground v.1.15,2013-06-08 23:10:00,
2013-06-08 17:15:00,69.6,26.7,29.50,WNW,301,2.0,5.0,20,0.00,,,0.00,Wunderground v.1.15,2013-06-08 23:15:00,
2013-06-08 17:25:00,68.9,28.5,29.50,West,268,3.0,4.0,22,0.00,,,0.00,Wunderground v.1.15,2013-06-08 23:25:00,
2013-06-08 17:30:00,69.9,25.7,29.51,WNW,288,3.0,5.0,19,0.00,,,0.00,Wunderground v.1.15,2013-06-08 23:30:00,
2013-06-08 17:35:00,69.9,27.0,29.51,NW,313,4.0,5.0,20,0.00,,,0.00,Wunderground v.1.15,2013-06-08 23:35:00,
2013-06-08 17:40:00,69.9,27.0,29.51,South,191,3.0,3.0,20,0.00,,,0.00,Wunderground v.1.15,2013-06-08 23:40:00,
2013-06-08 17:50:00,69.4,26.6,29.50,West,278,3.0,6.0,20,0.00,,,0.00,Wunderground v.1.15,2013-06-08 23:50:00,
2013-06-08 18:00:00,69.3,26.5,29.52,WNW,296,4.0,4.0,20,0.00,,,0.00,Wunderground v.1.15,2013-06-09 00:00:00,
2013-06-08 18:10:00,69.4,25.3,29.52,SSW,199,2.0,2.0,19,0.00,,,0.00,Wunderground v.1.15,2013-06-09 00:10:00,
2013-06-08 18:15:00,69.1,25.1,29.52,West,260,2.0,2.0,19,0.00,,,0.00,Wunderground v.1.15,2013-06-09 00:15:00,
2013-06-08 18:25:00,69.8,26.9,29.52,North,0,2.0,2.0,20,0.00,,,0.00,Wunderground v.1.15,2013-06-09 00:25:00,
2013-06-08 18:30:00,70.4,26.1,29.51,North,7,2.0,2.0,19,0.00,,,0.00,Wunderground v.1.15,2013-06-09 00:30:00,
2013-06-08 18:40:00,72.0,27.5,29.51,WNW,291,2.0,2.0,19,0.00,,,0.00,Wunderground v.1.15,2013-06-09 00:40:00,
2013-06-08 18:50:00,71.1,26.7,29.49,NW,308,2.0,6.0,19,0.00,,,0.00,Wunderground v.1.15,2013-06-09 00:50:00,
2013-06-08 18:55:00,70.1,27.1,29.49,WNW,302,3.0,6.0,20,0.00,,,0.00,Wunderground v.1.15,2013-06-09 00:55:00,
2013-06-08 19:00:00,69.4,27.7,29.51,SE,140,3.0,3.0,21,0.00,,,0.00,Wunderground v.1.15,2013-06-09 01:00:00,
2013-06-08 19:10:00,68.3,26.8,29.51,NNW,339,1.0,1.0,21,0.00,,,0.00,Wunderground v.1.15,2013-06-09 01:10:00,
2013-06-08 19:15:00,68.8,27.2,29.53,NNW,347,2.0,2.0,21,0.00,,,0.00,Wunderground v.1.15,2013-06-09 01:15:00,
2013-06-08 19:25:00,68.9,26.1,29.53,WNW,294,1.0,3.0,20,0.00,,,0.00,Wunderground v.1.15,2013-06-09 01:25:00,
2013-06-08 19:30:00,68.3,26.8,29.52,West,270,1.0,1.0,21,0.00,,,0.00,Wunderground v.1.15,2013-06-09 01:30:00,
2013-06-08 19:40:00,66.9,26.8,29.52,SW,236,1.0,1.0,22,0.00,,,0.00,Wunderground v.1.15,2013-06-09 01:40:00,
2013-06-08 19:45:00,66.4,26.4,29.54,West,272,0.0,1.0,22,0.00,,,0.00,Wunderground v.1.15,2013-06-09 01:45:00,
2013-06-08 19:55:00,65.8,26.9,29.54,West,265,0.0,0.0,23,0.00,,,0.00,Wunderground v.1.15,2013-06-09 01:55:00,
2013-06-08 20:00:00,65.5,26.7,29.54,WSW,248,0.0,0.0,23,0.00,,,0.00,Wunderground v.1.15,2013-06-09 02:00:00,
2013-06-08 20:10:00,64.5,33.2,29.54,ESE,106,1.0,1.0,31,0.00,,,0.00,Wunderground v.1.15,2013-06-09 02:10:00,
2013-06-08 20:15:00,62.9,36.2,29.54,SSW,209,1.0,1.0,37,0.00,,,0.00,Wunderground v.1.15,2013-06-09 02:15:00,
2013-06-08 20:25:00,61.0,37.1,29.54,West,264,0.0,1.0,41,0.00,,,0.00,Wunderground v.1.15,2013-06-09 02:25:00,
2013-06-08 20:30:00,60.1,37.5,29.57,South,189,0.0,0.0,43,0.00,,,0.00,Wunderground v.1.15,2013-06-09 02:30:00,
2013-06-08 20:40:00,58.9,37.0,29.57,North,10,0.0,0.0,44,0.00,,,0.00,Wunderground v.1.15,2013-06-09 02:40:00,
2013-06-08 20:45:00,58.3,37.0,29.60,North,10,0.0,0.0,45,0.00,,,0.00,Wunderground v.1.15,2013-06-09 02:45:00,
2013-06-08 20:55:00,57.3,36.1,29.60,North,11,0.0,0.0,45,0.00,,,0.00,Wunderground v.1.15,2013-06-09 02:55:00,
2013-06-08 21:00:00,56.9,35.8,29.62,North,11,0.0,0.0,45,0.00,,,0.00,Wunderground v.1.15,2013-06-09 03:00:00,
2013-06-08 21:10:00,56.0,35.5,29.62,NNE,28,0.0,0.0,46,0.00,,,0.00,Wunderground v.1.15,2013-06-09 03:10:00,
2013-06-08 21:15:00,55.7,35.2,29.65,NNE,23,0.0,0.0,46,0.00,,,0.00,Wunderground v.1.15,2013-06-09 03:15:00,
2013-06-08 21:25:00,55.4,35.5,29.65,NNE,21,0.0,0.0,47,0.00,,,0.00,Wunderground v.1.15,2013-06-09 03:25:00,
2013-06-08 21:30:00,55.1,35.2,29.65,NNE,21,0.0,0.0,47,0.00,,,0.00,Wunderground v.1.15,2013-06-09 03:30:00,
2013-06-08 21:40:00,54.7,35.4,29.65,NNE,21,0.0,0.0,48,0.00,,,0.00,Wunderground v.1.15,2013-06-09 03:40:00,
2013-06-08 21:45:00,54.2,35.4,29.66,NNE,21,0.0,0.0,49,0.00,,,0.00,Wunderground v.1.15,2013-06-09 03:45:00,
2013-06-08 21:55:00,52.9,35.7,29.66,NNE,21,0.0,0.0,52,0.00,,,0.00,Wunderground v.1.15,2013-06-09 03:55:00,
2013-06-08 22:00:00,52.3,35.7,29.68,NNE,21,0.0,0.0,53,0.00,,,0.00,Wunderground v.1.15,2013-06-09 04:00:00,
2013-06-08 22:05:00,51.7,35.6,29.68,NNE,21,0.0,0.0,54,0.00,,,0.00,Wunderground v.1.15,2013-06-09 04:05:00,
2013-06-08 22:10:00,51.6,35.9,29.68,NNE,21,0.0,0.0,55,0.00,,,0.00,Wunderground v.1.15,2013-06-09 04:10:00,
2013-06-08 22:15:00,50.7,35.6,29.70,NNE,21,0.0,0.0,56,0.00,,,0.00,Wunderground v.1.15,2013-06-09 04:15:00,
2013-06-08 22:25:00,49.9,35.7,29.70,NNE,21,0.0,0.0,58,0.00,,,0.00,Wunderground v.1.15,2013-06-09 04:25:00,
2013-06-08 22:30:00,49.6,35.4,29.75,NNE,21,0.0,0.0,58,0.00,,,0.00,Wunderground v.1.15,2013-06-09 04:30:00,
2013-06-08 22:35:00,49.5,35.3,29.75,NNE,21,0.0,0.0,58,0.00,,,0.00,Wunderground v.1.15,2013-06-09 04:35:00,
2013-06-08 22:40:00,49.4,35.7,29.75,NNE,21,0.0,0.0,59,0.00,,,0.00,Wunderground v.1.15,2013-06-09 04:40:00,
2013-06-08 22:45:00,48.9,35.6,29.77,NNE,21,0.0,0.0,60,0.00,,,0.00,Wunderground v.1.15,2013-06-09 04:45:00,